createdAt,value
2018-09-26T00:00:39.751Z,7.50
2018-09-26T00:04:46.529Z,7.40
2018-09-26T00:08:49.146Z,7.40
2018-09-26T00:12:51.838Z,7.40
2018-09-26T00:16:54.426Z,7.30
2018-09-26T00:20:57.074Z,7.20
2018-09-26T00:24:59.639Z,7.10
2018-09-26T00:29:02.368Z,7.10
2018-09-26T00:33:05.126Z,7.20
2018-09-26T00:37:07.874Z,7.20
2018-09-26T00:41:10.491Z,7.30
2018-09-26T00:45:13.071Z,7.20
2018-09-26T00:49:15.679Z,7.30
2018-09-26T00:53:18.376Z,7.30
2018-09-26T00:57:21.035Z,7.30
2018-09-26T01:01:23.697Z,7.20
2018-09-26T01:05:26.381Z,7.20
2018-09-26T01:09:28.967Z,7.10
2018-09-26T01:13:32.417Z,7.10
2018-09-26T01:17:35.108Z,7.10
2018-09-26T01:21:44.284Z,7.10
2018-09-26T01:25:46.863Z,7.20
2018-09-26T01:29:49.484Z,7.20
2018-09-26T01:33:52.126Z,7.30
2018-09-26T01:37:54.668Z,7.30
2018-09-26T01:41:57.285Z,7.30
2018-09-26T01:45:59.881Z,7.40
2018-09-26T01:50:02.541Z,7.40
2018-09-26T01:54:05.200Z,7.50
2018-09-26T01:58:07.890Z,7.40
2018-09-26T02:02:10.552Z,7.30
2018-09-26T02:06:13.265Z,7.30
2018-09-26T02:10:16.002Z,7.40
2018-09-26T02:14:18.643Z,7.40
2018-09-26T02:18:21.256Z,7.40
2018-09-26T02:22:23.873Z,7.50
2018-09-26T02:26:26.772Z,7.40
2018-09-26T02:30:29.835Z,7.20
2018-09-26T02:34:32.720Z,7.10
2018-09-26T02:38:35.626Z,7.20
2018-09-26T02:42:38.502Z,7.20
2018-09-26T02:46:41.310Z,7.20
2018-09-26T02:50:44.255Z,7.20
2018-09-26T02:54:46.895Z,7.20
2018-09-26T02:58:49.505Z,7.10
2018-09-26T03:02:52.163Z,7.20
2018-09-26T03:06:54.760Z,7.20
2018-09-26T03:10:57.463Z,7.30
2018-09-26T03:15:00.035Z,7.30
2018-09-26T03:19:02.681Z,7.50
2018-09-26T03:23:05.371Z,7.40
2018-09-26T03:27:08.012Z,7.40
2018-09-26T03:31:10.771Z,7.50
2018-09-26T03:35:13.557Z,7.30
2018-09-26T03:39:16.192Z,7.10
2018-09-26T03:43:18.800Z,7.00
2018-09-26T03:47:21.383Z,6.90
2018-09-26T03:51:24.000Z,6.80
2018-09-26T03:55:26.613Z,6.60
2018-09-26T03:59:29.313Z,6.60
2018-09-26T04:03:31.973Z,6.50
2018-09-26T04:07:34.653Z,6.50
2018-09-26T04:11:37.299Z,6.50
2018-09-26T04:15:47.560Z,6.40
2018-09-26T04:19:50.410Z,6.40
2018-09-26T04:23:53.004Z,6.30
2018-09-26T04:27:55.571Z,6.30
2018-09-26T04:31:58.194Z,6.20
2018-09-26T04:36:00.831Z,6.10
2018-09-26T04:40:03.487Z,6.20
2018-09-26T04:44:06.136Z,6.20
2018-09-26T04:48:08.765Z,6.20
2018-09-26T04:52:11.388Z,6.20
2018-09-26T04:56:14.174Z,6.20
2018-09-26T05:00:16.905Z,6.20
2018-09-26T05:04:19.485Z,6.30
2018-09-26T05:08:22.225Z,6.30
2018-09-26T05:12:24.731Z,6.20
2018-09-26T05:16:27.269Z,6.20
2018-09-26T05:20:29.935Z,6.20
2018-09-26T05:24:35.288Z,6.20
2018-09-26T05:28:37.927Z,6.20
2018-09-26T05:32:40.520Z,6.20
2018-09-26T05:36:43.108Z,6.20
2018-09-26T05:40:45.715Z,6.20
2018-09-26T05:44:48.376Z,6.20
2018-09-26T05:48:51.017Z,6.20
2018-09-26T05:52:53.614Z,6.20
2018-09-26T05:56:56.140Z,6.20
2018-09-26T06:00:58.737Z,6.20
2018-09-26T06:05:01.263Z,6.30
2018-09-26T06:09:05.992Z,6.40
2018-09-26T06:13:08.726Z,6.50
2018-09-26T06:17:11.202Z,6.50
2018-09-26T06:21:13.766Z,6.60
2018-09-26T06:25:16.431Z,7.00
2018-09-26T06:29:19.055Z,7.20
2018-09-26T06:33:21.670Z,7.40
2018-09-26T06:37:24.240Z,7.60
2018-09-26T06:41:26.843Z,7.80
2018-09-26T06:45:29.437Z,7.90
2018-09-26T06:49:32.154Z,8.20
2018-09-26T06:53:34.718Z,8.40
2018-09-26T06:57:37.291Z,8.50
2018-09-26T07:01:39.923Z,8.60
2018-09-26T07:05:42.502Z,8.80
2018-09-26T07:09:47.146Z,8.80
2018-09-26T07:13:49.803Z,8.90
2018-09-26T07:17:52.384Z,9.10
2018-09-26T07:21:54.940Z,9.40
2018-09-26T07:25:57.437Z,9.40
2018-09-26T07:29:59.975Z,9.70
2018-09-26T07:34:02.544Z,9.80
2018-09-26T07:38:05.150Z,10.00
2018-09-26T07:42:07.678Z,10.10
2018-09-26T07:46:10.256Z,10.30
2018-09-26T07:50:12.838Z,10.40
2018-09-26T07:54:15.628Z,10.50
2018-09-26T07:58:18.146Z,10.60
2018-09-26T08:02:20.790Z,10.90
2018-09-26T08:06:23.376Z,11.20
2018-09-26T08:10:25.954Z,11.40
2018-09-26T08:14:28.486Z,11.50
2018-09-26T08:18:31.119Z,11.50
2018-09-26T08:22:33.676Z,11.90
2018-09-26T08:26:36.268Z,12.20
2018-09-26T08:30:38.854Z,12.60
2018-09-26T08:34:41.443Z,12.60
2018-09-26T08:38:44.067Z,12.80
2018-09-26T08:42:46.627Z,12.90
2018-09-26T08:46:49.253Z,12.80
2018-09-26T08:50:51.845Z,13.00
2018-09-26T08:54:54.407Z,13.10
2018-09-26T08:58:56.982Z,13.50
2018-09-26T09:02:59.539Z,13.90
2018-09-26T09:07:02.155Z,14.20
2018-09-26T09:11:04.766Z,14.20
2018-09-26T09:15:07.409Z,14.00
2018-09-26T09:19:10.056Z,14.30
2018-09-26T09:23:12.612Z,14.50
2018-09-26T09:27:15.287Z,14.50
2018-09-26T09:31:17.813Z,14.40
2018-09-26T09:35:20.577Z,14.50
2018-09-26T09:39:23.206Z,15.10
2018-09-26T09:43:25.823Z,15.50
2018-09-26T09:47:28.487Z,15.40
2018-09-26T09:51:31.016Z,15.70
2018-09-26T09:55:33.587Z,16.00
2018-09-26T09:59:36.185Z,15.90
2018-09-26T10:03:38.773Z,16.00
2018-09-26T10:07:41.316Z,16.30
2018-09-26T10:11:43.932Z,16.30
2018-09-26T10:15:46.522Z,16.50
2018-09-26T10:19:49.127Z,16.60
2018-09-26T10:23:51.768Z,16.50
2018-09-26T10:27:54.430Z,16.40
2018-09-26T10:31:57.014Z,16.30
2018-09-26T10:35:59.619Z,16.00
2018-09-26T10:40:02.214Z,16.10
2018-09-26T10:44:04.901Z,16.60
2018-09-26T10:48:07.502Z,17.20
2018-09-26T10:52:10.137Z,17.10
2018-09-26T10:56:12.794Z,16.90
2018-09-26T11:00:15.385Z,17.50
2018-09-26T11:04:17.965Z,17.50
2018-09-26T11:08:20.638Z,17.70
2018-09-26T11:12:23.146Z,18.00
2018-09-26T11:16:25.794Z,18.50
2018-09-26T11:20:28.597Z,18.70
2018-09-26T11:24:31.222Z,18.60
2018-09-26T11:28:33.849Z,18.80
2018-09-26T11:32:36.506Z,18.60
2018-09-26T11:36:39.123Z,18.90
2018-09-26T11:40:41.671Z,18.70
2018-09-26T11:44:44.259Z,19.20
2018-09-26T11:48:46.848Z,19.00
2018-09-26T11:52:49.455Z,19.00
2018-09-26T11:56:52.081Z,19.40
2018-09-26T12:00:54.687Z,20.10
2018-09-26T12:04:57.271Z,19.70
2018-09-26T12:08:59.856Z,19.20
2018-09-26T12:13:02.597Z,19.60
2018-09-26T12:17:05.182Z,19.80
2018-09-26T12:21:07.766Z,20.30
2018-09-26T12:25:10.373Z,19.70
2018-09-26T12:29:12.968Z,19.60
2018-09-26T12:33:15.536Z,19.80
2018-09-26T12:37:18.153Z,19.60
2018-09-26T12:41:20.762Z,19.70
2018-09-26T12:45:23.559Z,20.30
2018-09-26T12:49:26.234Z,20.60
2018-09-26T12:53:28.947Z,20.20
2018-09-26T12:57:31.648Z,20.70
2018-09-26T13:01:34.239Z,20.50
2018-09-26T13:05:36.821Z,20.10
2018-09-26T13:09:39.721Z,19.80
2018-09-26T13:13:42.577Z,19.80
2018-09-26T13:17:45.355Z,19.90
2018-09-26T13:21:47.956Z,19.70
2018-09-26T13:25:50.655Z,19.70
2018-09-26T13:29:53.292Z,19.70
2018-09-26T13:33:55.891Z,19.80
2018-09-26T13:37:58.584Z,19.30
2018-09-26T13:42:01.307Z,19.50
2018-09-26T13:46:04.060Z,19.70
2018-09-26T13:50:06.666Z,20.10
2018-09-26T13:54:09.386Z,20.40
2018-09-26T13:58:12.001Z,20.00
2018-09-26T14:02:14.681Z,20.10
2018-09-26T14:06:17.277Z,19.90
2018-09-26T14:10:19.961Z,20.00
2018-09-26T14:14:22.629Z,20.10
2018-09-26T14:18:25.310Z,20.10
2018-09-26T14:22:27.912Z,20.10
2018-09-26T14:26:30.385Z,19.80
2018-09-26T14:30:33.238Z,20.10
2018-09-26T14:34:35.833Z,20.10
2018-09-26T14:38:38.518Z,19.90
2018-09-26T14:42:41.272Z,20.00
2018-09-26T14:46:43.902Z,19.40
2018-09-26T14:50:47.565Z,19.50
2018-09-26T14:54:50.271Z,19.70
2018-09-26T14:58:52.887Z,19.70
2018-09-26T15:02:55.579Z,19.60
2018-09-26T15:06:58.235Z,19.60
2018-09-26T15:11:00.926Z,19.60
2018-09-26T15:15:03.706Z,19.30
2018-09-26T15:19:06.961Z,19.10
2018-09-26T15:23:13.058Z,19.00
2018-09-26T15:27:15.670Z,18.90
2018-09-26T15:31:18.267Z,18.90
2018-09-26T15:35:21.219Z,19.00
2018-09-26T15:39:24.020Z,18.90
2018-09-26T15:43:26.675Z,18.80
2018-09-26T15:47:29.325Z,18.70
2018-09-26T15:51:32.020Z,18.60
2018-09-26T15:55:35.013Z,18.60
2018-09-26T15:59:37.771Z,18.50
2018-09-26T16:03:40.505Z,18.40
2018-09-26T16:07:43.259Z,18.40
2018-09-26T16:11:45.993Z,18.30
2018-09-26T16:15:49.040Z,18.20
2018-09-26T16:19:51.725Z,18.00
2018-09-26T16:23:54.818Z,18.00
2018-09-26T16:27:57.658Z,17.90
2018-09-26T16:32:00.378Z,17.80
2018-09-26T16:36:03.043Z,17.70
2018-09-26T16:40:05.932Z,17.60
2018-09-26T16:44:08.593Z,17.50
2018-09-26T16:48:11.279Z,17.40
2018-09-26T16:52:13.984Z,17.30
2018-09-26T16:56:16.599Z,17.20
2018-09-26T17:00:19.361Z,17.10
2018-09-26T17:04:21.982Z,17.10
2018-09-26T17:08:24.711Z,17.00
2018-09-26T17:12:27.389Z,16.90
